Time;durP1;ratioP1;P1;durP2;ratioP2;P2;SDS_P1;SDS_P2;PMS_P1;PMS_P2;Temp;Humidity;BMP_temperature;BMP_pressure;BME280_temperature;BME280_humidity;BME280_pressure;Samples;Min_cycle;Max_cycle;Signal;HPM_P1;HPM_P2
2023/06/22 00:04:00;;;;;;;5.37;4.17;;;24.60;38.10;;;;;;10437103;28;20247;-70
2023/06/22 00:09:06;;;;;;;4.93;4.53;;;24.50;38.10;;;;;;10432508;28;20249;-69
2023/06/22 00:14:09;;;;;;;5.20;4.70;;;24.50;38.50;;;;;;10430638;28;20246;-70
2023/06/22 00:19:13;;;;;;;5.37;4.53;;;24.50;38.00;;;;;;10436348;28;20240;-70
2023/06/22 00:24:17;;;;;;;4.87;4.47;;;24.40;38.00;;;;;;10437543;28;20256;-70
2023/06/22 00:29:20;;;;;;;6.67;4.90;;;24.30;38.50;;;;;;10427843;28;20277;-70
2023/06/22 00:34:26;;;;;;;5.57;5.00;;;24.30;38.40;;;;;;10428685;28;20278;-70
2023/06/22 00:39:32;;;;;;;5.57;5.00;;;24.20;38.60;;;;;;10434886;28;20231;-70
2023/06/22 00:44:36;;;;;;;5.57;5.07;;;24.10;39.20;;;;;;10436731;28;20268;-70
2023/06/22 00:49:39;;;;;;;5.20;4.70;;;24.10;38.90;;;;;;10427489;28;20278;-70
2023/06/22 00:54:45;;;;;;;5.13;4.63;;;24.10;38.80;;;;;;10439655;28;20239;-70
2023/06/22 00:59:49;;;;;;;6.67;4.70;;;24.00;39.30;;;;;;10435929;28;20233;-70
2023/06/22 01:04:55;;;;;;;6.20;5.53;;;24.00;39.30;;;;;;10432529;28;20982;-70
2023/06/22 01:10:07;;;;;;;6.27;4.83;;;23.90;39.20;;;;;;10433196;28;20237;-70
2023/06/22 01:15:16;;;;;;;5.23;4.73;;;23.90;39.90;;;;;;10437230;28;20226;-70
2023/06/22 01:20:21;;;;;;;5.93;5.23;;;23.80;39.90;;;;;;10435329;28;20217;-69
2023/06/22 01:25:37;;;;;;;5.17;4.67;;;23.80;39.80;;;;;;10440812;28;20726;-70
2023/06/22 01:30:42;;;;;;;7.03;4.63;;;23.80;39.80;;;;;;10430774;28;20229;-70
2023/06/22 01:35:46;;;;;;;6.97;4.80;;;23.70;39.80;;;;;;10423870;28;20256;-70
2023/06/22 01:40:50;;;;;;;5.20;4.77;;;23.70;39.80;;;;;;10427095;28;20231;-70
2023/06/22 01:45:55;;;;;;;5.97;4.80;;;23.60;39.70;;;;;;10427559;28;20248;-70
2023/06/22 01:50:59;;;;;;;5.77;4.57;;;23.60;40.00;;;;;;10432866;28;20235;-70
2023/06/22 01:56:02;;;;;;;5.73;4.37;;;23.60;39.70;;;;;;10427455;28;20244;-70
2023/06/22 02:01:12;;;;;;;5.20;4.80;;;23.60;39.70;;;;;;10423272;28;20237;-70
2023/06/22 02:06:23;;;;;;;4.23;3.83;;;23.60;40.60;;;;;;10427213;28;20345;-70
2023/06/22 02:11:29;;;;;;;4.77;4.10;;;23.60;40.20;;;;;;10433364;28;20231;-70
2023/06/22 02:16:34;;;;;;;6.13;5.10;;;23.60;39.70;;;;;;10428712;28;20226;-69
2023/06/22 02:21:37;;;;;;;7.40;4.90;;;23.60;39.70;;;;;;10430445;28;21099;-69
2023/06/22 02:26:42;;;;;;;5.63;4.77;;;23.50;39.60;;;;;;10426926;28;20236;-70
2023/06/22 02:31:46;;;;;;;5.53;4.93;;;23.50;39.60;;;;;;10427733;28;20635;-70
2023/06/22 02:36:51;;;;;;;5.37;4.87;;;23.50;39.80;;;;;;10436314;28;20312;-70
2023/06/22 02:41:55;;;;;;;5.20;4.70;;;23.40;39.50;;;;;;10428711;28;20229;-70
2023/06/22 02:47:00;;;;;;;6.03;4.43;;;23.30;39.70;;;;;;10435400;28;20693;-70
2023/06/22 02:52:03;;;;;;;4.97;4.47;;;23.40;39.90;;;;;;10427089;28;20682;-70
2023/06/22 02:57:07;;;;;;;5.23;4.73;;;23.30;39.50;;;;;;10439798;28;20610;-69
2023/06/22 03:02:11;;;;;;;5.87;5.23;;;23.30;39.70;;;;;;10441015;28;20923;-70
2023/06/22 03:07:15;;;;;;;8.27;5.53;;;23.30;40.30;;;;;;10439901;28;20240;-70
2023/06/22 03:12:18;;;;;;;5.83;5.20;;;23.30;39.90;;;;;;10438839;28;20221;-70
2023/06/22 03:17:22;;;;;;;6.50;5.77;;;23.30;39.90;;;;;;10445421;28;20217;-70
2023/06/22 03:22:25;;;;;;;5.93;5.43;;;23.20;40.50;;;;;;10438109;28;20697;-70
2023/06/22 03:27:29;;;;;;;6.20;5.60;;;23.20;40.40;;;;;;10436708;28;20730;-69
2023/06/22 03:32:33;;;;;;;5.77;4.57;;;23.20;40.50;;;;;;10437772;28;20235;-70
2023/06/22 03:37:36;;;;;;;5.43;4.93;;;23.10;40.70;;;;;;10436630;28;20230;-70
2023/06/22 03:42:40;;;;;;;5.60;5.10;;;23.10;40.40;;;;;;10435770;28;20317;-70
2023/06/22 03:47:44;;;;;;;4.93;4.43;;;23.10;40.40;;;;;;10430486;28;20236;-70
2023/06/22 03:52:48;;;;;;;6.60;5.00;;;23.10;41.00;;;;;;10438249;28;20241;-70
2023/06/22 03:57:53;;;;;;;5.43;4.93;;;23.10;40.80;;;;;;10433733;28;20744;-70
2023/06/22 04:02:57;;;;;;;4.50;4.10;;;23.10;40.70;;;;;;10438374;28;20229;-70
2023/06/22 04:08:00;;;;;;;5.33;4.83;;;23.00;40.90;;;;;;10447189;28;20232;-69
2023/06/22 04:13:03;;;;;;;5.53;5.03;;;23.00;40.80;;;;;;10430272;28;20260;-69
2023/06/22 04:18:08;;;;;;;6.17;5.57;;;23.00;41.00;;;;;;10434098;28;20594;-70
2023/06/22 04:23:12;;;;;;;5.20;4.70;;;23.00;41.50;;;;;;10428714;28;20221;-69
2023/06/22 04:28:15;;;;;;;6.57;5.37;;;23.00;40.90;;;;;;10432331;28;20220;-69
2023/06/22 04:33:19;;;;;;;5.87;5.40;;;23.00;41.00;;;;;;10433166;28;20765;-71
2023/06/22 04:38:22;;;;;;;5.47;4.80;;;22.90;41.40;;;;;;10440633;28;20238;-70
2023/06/22 04:43:30;;;;;;;5.67;5.17;;;22.90;41.20;;;;;;10438182;28;20578;-71
2023/06/22 04:48:35;;;;;;;7.00;6.37;;;22.90;41.40;;;;;;10432045;28;20305;-70
2023/06/22 04:53:41;;;;;;;8.73;7.57;;;22.90;42.40;;;;;;10432999;28;20660;-66
2023/06/22 04:58:44;;;;;;;7.73;7.00;;;22.90;42.40;;;;;;10438417;28;20224;-66
2023/06/22 05:03:48;;;;;;;7.80;7.07;;;23.00;42.60;;;;;;10437534;28;20926;-66
2023/06/22 05:08:57;;;;;;;8.33;7.63;;;23.00;43.60;;;;;;10426638;28;20314;-67
2023/06/22 05:14:00;;;;;;;8.60;7.43;;;23.00;43.40;;;;;;10425549;28;20276;-66
2023/06/22 05:19:05;;;;;;;9.30;8.33;;;23.10;43.30;;;;;;10431401;28;20771;-65
2023/06/22 05:24:08;;;;;;;9.43;8.43;;;23.10;44.10;;;;;;10430219;28;20784;-67
2023/06/22 05:29:11;;;;;;;9.40;8.50;;;23.10;43.30;;;;;;10439245;28;20228;-66
2023/06/22 05:34:16;;;;;;;9.93;8.80;;;23.20;43.50;;;;;;10432642;28;20225;-66
2023/06/22 05:39:19;;;;;;;10.30;9.33;;;23.20;44.30;;;;;;10429265;28;20224;-70
2023/06/22 05:44:22;;;;;;;9.90;9.00;;;23.20;43.90;;;;;;10429912;28;20232;-69
2023/06/22 05:49:29;;;;;;;10.20;9.30;;;23.20;43.90;;;;;;10437338;28;20925;-70
2023/06/22 05:54:33;;;;;;;10.10;9.20;;;23.30;44.80;;;;;;10428553;28;20241;-70
2023/06/22 05:59:36;;;;;;;12.07;9.53;;;23.30;44.40;;;;;;10428852;28;20714;-70
2023/06/22 06:04:40;;;;;;;10.03;9.13;;;23.40;44.60;;;;;;10427032;28;20308;-70
2023/06/22 06:09:44;;;;;;;9.60;8.80;;;23.50;45.40;;;;;;10431270;28;20701;-70
2023/06/22 06:14:47;;;;;;;9.57;8.63;;;23.60;45.00;;;;;;10430723;28;20639;-69
2023/06/22 06:19:52;;;;;;;9.90;8.70;;;23.70;45.10;;;;;;10427427;28;20233;-69
2023/06/22 06:24:55;;;;;;;8.93;8.13;;;23.80;45.70;;;;;;10418286;28;20235;-66
2023/06/22 06:29:58;;;;;;;8.07;7.13;;;23.90;45.40;;;;;;10429094;28;20221;-66
2023/06/22 06:35:03;;;;;;;6.93;6.23;;;24.10;45.50;;;;;;10428933;28;20622;-69
2023/06/22 06:40:08;;;;;;;5.73;4.57;;;24.30;45.60;;;;;;10439872;28;20223;-66
2023/06/22 06:45:12;;;;;;;4.90;4.17;;;24.50;44.60;;;;;;10432040;28;20246;-66
2023/06/22 06:50:18;;;;;;;4.40;4.00;;;24.70;44.40;;;;;;10436962;28;20320;-70
2023/06/22 06:55:23;;;;;;;3.90;3.50;;;24.90;44.00;;;;;;10435896;28;20225;-70
2023/06/22 07:00:27;;;;;;;4.23;3.83;;;25.20;43.90;;;;;;10434118;28;20316;-66
2023/06/22 07:05:32;;;;;;;6.50;3.87;;;25.40;43.30;;;;;;10440389;28;20284;-66
2023/06/22 07:10:35;;;;;;;4.13;3.40;;;25.70;42.30;;;;;;10435766;28;20266;-66
2023/06/22 07:15:39;;;;;;;3.50;3.20;;;25.90;42.10;;;;;;10430670;28;20233;-66
2023/06/22 07:20:43;;;;;;;3.93;3.27;;;26.20;41.70;;;;;;10434475;28;20344;-67
2023/06/22 07:25:46;;;;;;;3.23;2.83;;;26.50;41.50;;;;;;10434002;28;20898;-66
2023/06/22 07:30:51;;;;;;;3.23;2.93;;;26.80;41.10;;;;;;10430055;28;20562;-66
2023/06/22 07:35:55;;;;;;;5.17;2.97;;;27.00;40.60;;;;;;10433858;28;20629;-66
2023/06/22 07:40:59;;;;;;;4.47;3.03;;;27.30;39.50;;;;;;10436798;28;20317;-66
2023/06/22 07:46:02;;;;;;;3.10;2.80;;;27.50;39.40;;;;;;10428201;28;20595;-67
2023/06/22 07:51:07;;;;;;;4.00;3.07;;;27.80;38.80;;;;;;10430051;28;20229;-66
2023/06/22 07:56:11;;;;;;;3.73;3.07;;;28.00;37.30;;;;;;10437942;28;20246;-67
2023/06/22 08:01:16;;;;;;;5.17;3.33;;;28.20;36.60;;;;;;10432986;28;20728;-66
2023/06/22 08:06:21;;;;;;;5.77;3.10;;;28.40;36.60;;;;;;10431641;28;20653;-66
2023/06/22 08:11:25;;;;;;;4.50;3.20;;;28.60;35.80;;;;;;10436380;28;20231;-66
2023/06/22 08:16:28;;;;;;;7.30;3.20;;;28.70;36.20;;;;;;10432709;28;20323;-66
2023/06/22 08:21:33;;;;;;;6.97;3.47;;;28.90;36.20;;;;;;10427914;28;21137;-66
2023/06/22 08:26:37;;;;;;;3.60;3.23;;;29.10;35.10;;;;;;10440980;28;20224;-66
2023/06/22 08:31:40;;;;;;;3.57;3.20;;;29.30;35.60;;;;;;10430487;28;20677;-66
2023/06/22 08:36:52;;;;;;;4.63;3.33;;;29.50;35.30;;;;;;10430592;28;20236;-66
2023/06/22 08:41:55;;;;;;;4.83;3.33;;;29.70;34.10;;;;;;10428697;28;20229;-69
2023/06/22 08:46:58;;;;;;;6.07;3.43;;;30.00;34.50;;;;;;10432353;28;20230;-69
2023/06/22 08:52:03;;;;;;;5.00;3.60;;;30.20;33.90;;;;;;10428888;28;20220;-69
2023/06/22 08:57:07;;;;;;;3.80;3.40;;;30.40;32.80;;;;;;10436249;28;20607;-69
2023/06/22 09:02:10;;;;;;;3.73;3.43;;;30.50;33.10;;;;;;10434008;28;20236;-66
2023/06/22 09:07:22;;;;;;;4.93;3.67;;;30.70;33.00;;;;;;10428591;28;20241;-66
2023/06/22 09:12:27;;;;;;;4.67;3.50;;;30.90;31.90;;;;;;10434607;28;20235;-70
2023/06/22 09:17:30;;;;;;;3.90;3.43;;;31.10;32.30;;;;;;10441496;28;20225;-70
2023/06/22 09:22:35;;;;;;;4.77;3.67;;;31.30;32.40;;;;;;10433203;28;20296;-70
2023/06/22 09:27:38;;;;;;;3.97;3.47;;;31.50;31.30;;;;;;10428931;28;20229;-70
2023/06/22 09:32:42;;;;;;;6.37;3.70;;;31.70;31.30;;;;;;10428880;28;20229;-70
2023/06/22 09:37:47;;;;;;;5.47;3.70;;;31.80;30.60;;;;;;10426918;28;20600;-70
2023/06/22 09:42:50;;;;;;;5.87;3.90;;;31.90;29.60;;;;;;10421013;28;20225;-70
2023/06/22 09:47:53;;;;;;;4.67;3.60;;;32.10;30.10;;;;;;10433516;28;20240;-70
2023/06/22 09:52:58;;;;;;;7.67;3.97;;;32.20;30.10;;;;;;10427189;28;20237;-70
2023/06/22 09:58:01;;;;;;;5.10;3.67;;;32.40;29.30;;;;;;10426875;28;20244;-70
2023/06/22 10:03:04;;;;;;;7.03;4.07;;;32.50;29.50;;;;;;10425135;28;20213;-70
2023/06/22 10:08:10;;;;;;;4.67;3.73;;;32.70;29.00;;;;;;10430733;28;20228;-70
2023/06/22 10:13:13;;;;;;;5.90;3.80;;;32.90;27.70;;;;;;10415857;28;20238;-70
2023/06/22 10:18:16;;;;;;;4.27;3.73;;;33.00;28.10;;;;;;10424944;28;20709;-70
2023/06/22 10:23:21;;;;;;;4.10;3.80;;;33.10;27.90;;;;;;10423715;28;20222;-70
2023/06/22 10:28:24;;;;;;;4.97;3.90;;;33.10;26.90;;;;;;10420404;28;20244;-70
2023/06/22 10:33:27;;;;;;;6.87;4.13;;;33.20;27.60;;;;;;10420013;28;20600;-70
2023/06/22 10:38:32;;;;;;;7.03;3.83;;;33.40;26.90;;;;;;10418897;28;20320;-70
2023/06/22 10:43:35;;;;;;;4.57;3.80;;;33.40;26.60;;;;;;10422242;28;20221;-70
2023/06/22 10:48:38;;;;;;;4.80;4.27;;;33.50;26.80;;;;;;10424532;28;20236;-70
2023/06/22 10:53:43;;;;;;;4.23;3.80;;;33.60;27.00;;;;;;10422961;28;20717;-70
2023/06/22 10:58:47;;;;;;;4.53;3.57;;;33.70;25.80;;;;;;10424146;28;20232;-70
2023/06/22 11:03:50;;;;;;;4.07;3.67;;;33.90;26.20;;;;;;10418487;28;20349;-70
2023/06/22 11:08:55;;;;;;;6.57;4.00;;;34.00;26.50;;;;;;10426202;28;20318;-70
2023/06/22 11:14:08;;;;;;;6.07;4.07;;;34.20;25.40;;;;;;10425890;28;20230;-70
2023/06/22 11:19:12;;;;;;;6.37;4.40;;;34.30;25.60;;;;;;10431816;28;20569;-74
2023/06/22 11:24:18;;;;;;;4.53;3.87;;;34.40;25.10;;;;;;10439212;28;20691;-73
2023/06/22 11:29:21;;;;;;;6.23;4.00;;;34.40;23.60;;;;;;10435667;28;20329;-73
2023/06/22 11:34:39;;;;;;;8.17;3.60;;;34.40;24.40;;;;;;10438052;28;20244;-73
2023/06/22 11:39:44;;;;;;;6.13;4.27;;;34.40;24.80;;;;;;10434050;28;20783;-74
2023/06/22 11:44:55;;;;;;;6.97;3.90;;;34.50;23.90;;;;;;10429685;28;20892;-73
2023/06/22 11:50:01;;;;;;;4.80;3.97;;;34.60;24.80;;;;;;10431973;28;20229;-73
2023/06/22 11:55:06;;;;;;;6.50;3.80;;;34.70;24.20;;;;;;10434756;28;20304;-66
2023/06/22 12:00:17;;;;;;;6.97;3.83;;;34.80;23.60;;;;;;10434379;28;20318;-66
2023/06/22 12:05:22;;;;;;;5.90;4.10;;;35.00;24.00;;;;;;10431383;28;20234;-66
2023/06/22 12:10:28;;;;;;;5.27;3.77;;;35.10;23.90;;;;;;10428262;28;20235;-74
2023/06/22 12:15:32;;;;;;;4.70;4.23;;;35.20;23.70;;;;;;10426519;28;20318;-74
2023/06/22 12:20:35;;;;;;;7.10;4.37;;;35.40;23.90;;;;;;10426704;28;20221;-73
2023/06/22 12:25:39;;;;;;;5.90;4.33;;;35.60;23.70;;;;;;10421451;28;20684;-74
2023/06/22 12:30:43;;;;;;;5.03;4.13;;;35.70;22.90;;;;;;10428938;28;20333;-65
2023/06/22 12:35:48;;;;;;;6.87;5.00;;;35.70;23.10;;;;;;10429216;28;20788;-66
2023/06/22 12:40:53;;;;;;;5.00;4.20;;;35.90;22.50;;;;;;10423924;28;20229;-65
2023/06/22 12:45:57;;;;;;;5.57;3.90;;;35.90;22.50;;;;;;10434398;28;20330;-65
2023/06/22 12:51:00;;;;;;;6.73;4.20;;;36.00;22.50;;;;;;10425652;28;20361;-69
2023/06/22 12:56:05;;;;;;;6.77;4.23;;;36.00;22.40;;;;;;10425384;28;21003;-70
2023/06/22 13:01:08;;;;;;;6.27;4.37;;;36.10;21.90;;;;;;10437649;28;20275;-70
2023/06/22 13:06:11;;;;;;;7.47;4.57;;;36.10;22.10;;;;;;10415888;28;20239;-69
2023/06/22 13:11:16;;;;;;;7.23;4.63;;;36.10;22.10;;;;;;10424284;28;20225;-69
2023/06/22 13:16:19;;;;;;;5.13;4.20;;;36.10;21.40;;;;;;10426753;28;20232;-69
2023/06/22 13:21:22;;;;;;;6.43;4.60;;;36.20;21.70;;;;;;10425791;28;20234;-71
2023/06/22 13:26:28;;;;;;;6.00;4.73;;;36.20;21.40;;;;;;10426231;28;20318;-71
2023/06/22 13:31:31;;;;;;;6.00;4.23;;;36.20;20.90;;;;;;10426372;28;20229;-69
2023/06/22 13:36:35;;;;;;;7.57;3.83;;;36.20;21.10;;;;;;10435583;28;20253;-66
2023/06/22 13:41:39;;;;;;;4.70;4.20;;;36.20;21.20;;;;;;10430276;28;20231;-66
2023/06/22 13:46:42;;;;;;;6.07;4.37;;;36.30;20.50;;;;;;10424688;28;20233;-66
2023/06/22 13:51:47;;;;;;;6.27;4.53;;;36.30;20.90;;;;;;10419102;28;20846;-66
2023/06/22 13:56:52;;;;;;;5.87;4.60;;;36.40;20.80;;;;;;10430916;28;20328;-66
2023/06/22 14:01:55;;;;;;;10.80;4.50;;;36.50;20.60;;;;;;10433500;28;20230;-66
2023/06/22 14:06:59;;;;;;;5.90;4.43;;;36.60;20.80;;;;;;10425531;28;20232;-71
2023/06/22 14:12:06;;;;;;;9.10;5.30;;;36.60;20.40;;;;;;10430771;28;20602;-69
2023/06/22 14:17:09;;;;;;;6.03;4.30;;;36.60;19.60;;;;;;10432113;28;20235;-70
2023/06/22 14:22:12;;;;;;;6.90;4.53;;;36.70;20.20;;;;;;10432267;28;20597;-70
2023/06/22 14:27:17;;;;;;;9.80;4.40;;;36.70;20.10;;;;;;10429322;28;20229;-71
2023/06/22 14:32:20;;;;;;;9.93;4.60;;;36.80;19.70;;;;;;10426253;28;20229;-71
2023/06/22 14:37:24;;;;;;;7.50;4.73;;;36.80;19.90;;;;;;10425370;28;20316;-71
2023/06/22 14:42:30;;;;;;;5.63;4.57;;;36.90;19.40;;;;;;10428989;28;20225;-71
2023/06/22 14:47:33;;;;;;;10.30;4.90;;;36.90;19.40;;;;;;10429525;28;20716;-70
2023/06/22 14:52:36;;;;;;;7.50;4.70;;;37.00;19.50;;;;;;10438117;28;20382;-71
2023/06/22 14:57:40;;;;;;;5.20;4.67;;;37.10;19.40;;;;;;10426376;28;20645;-71
2023/06/22 15:02:44;;;;;;;40.60;11.53;;;37.20;19.00;;;;;;10431775;28;20225;-71
2023/06/22 15:07:47;;;;;;;6.67;4.87;;;37.20;19.20;;;;;;10431206;28;20275;-71
2023/06/22 15:12:52;;;;;;;6.00;4.33;;;37.20;19.20;;;;;;10436312;28;20778;-70
2023/06/22 15:17:55;;;;;;;6.27;4.83;;;37.20;18.60;;;;;;10430447;28;20225;-71
2023/06/22 15:22:59;;;;;;;6.10;4.20;;;37.30;18.60;;;;;;10433048;28;20622;-71
2023/06/22 15:28:03;;;;;;;6.30;4.77;;;37.30;18.80;;;;;;10431777;28;20578;-69
2023/06/22 15:33:06;;;;;;;8.17;4.63;;;37.20;18.50;;;;;;10429458;28;20235;-71
2023/06/22 15:38:10;;;;;;;9.67;5.00;;;37.20;18.60;;;;;;10428294;28;20321;-71
2023/06/22 15:43:14;;;;;;;7.03;4.90;;;37.30;18.70;;;;;;10437958;28;20236;-71
2023/06/22 15:48:18;;;;;;;8.43;5.03;;;37.20;18.10;;;;;;10427059;28;20229;-71
2023/06/22 15:53:21;;;;;;;8.17;5.07;;;37.30;18.30;;;;;;10425786;28;20811;-71
2023/06/22 15:58:26;;;;;;;8.00;4.47;;;37.30;18.60;;;;;;10429087;28;20638;-71
2023/06/22 16:03:29;;;;;;;6.70;4.83;;;37.30;18.30;;;;;;10426055;28;20316;-71
2023/06/22 16:08:33;;;;;;;8.67;5.07;;;37.30;18.40;;;;;;10425811;28;20240;-70
2023/06/22 16:13:38;;;;;;;7.10;4.67;;;37.30;18.50;;;;;;10431561;28;20240;-70
2023/06/22 16:18:42;;;;;;;8.00;4.47;;;37.30;17.90;;;;;;10429752;28;20319;-70
2023/06/22 16:23:45;;;;;;;5.33;4.73;;;37.40;18.30;;;;;;10430714;28;20667;-71
2023/06/22 16:28:50;;;;;;;6.17;4.40;;;37.40;18.00;;;;;;10430695;28;20840;-71
2023/06/22 16:33:53;;;;;;;5.87;4.63;;;37.40;17.80;;;;;;10435009;28;20231;-71
2023/06/22 16:38:56;;;;;;;7.57;4.50;;;37.40;18.40;;;;;;10438264;28;20229;-71
2023/06/22 16:44:04;;;;;;;7.10;4.57;;;37.30;19.00;;;;;;10421681;28;20229;-71
2023/06/22 16:49:08;;;;;;;5.37;4.30;;;37.40;18.00;;;;;;10428526;28;20225;-71
2023/06/22 16:54:12;;;;;;;6.37;4.87;;;37.30;18.40;;;;;;10430581;28;20223;-71
2023/06/22 16:59:16;;;;;;;7.17;4.70;;;37.30;18.60;;;;;;10424967;28;20313;-71
2023/06/22 17:04:23;;;;;;;6.67;5.00;;;37.30;18.30;;;;;;10442662;28;20220;-71
2023/06/22 17:09:28;;;;;;;6.93;4.80;;;37.30;18.30;;;;;;10430970;28;20702;-71
2023/06/22 17:14:32;;;;;;;6.73;4.77;;;37.20;18.20;;;;;;10434194;28;20781;-71
2023/06/22 17:19:35;;;;;;;6.10;5.00;;;37.10;18.70;;;;;;10435072;28;20319;-71
2023/06/22 17:24:41;;;;;;;7.83;5.13;;;37.00;18.20;;;;;;10430404;28;20859;-71
2023/06/22 17:29:45;;;;;;;5.87;4.60;;;36.80;18.60;;;;;;10426390;28;20257;-71
2023/06/22 17:34:54;;;;;;;6.67;4.90;;;36.70;18.70;;;;;;10427669;28;20315;-71
2023/06/22 17:39:58;;;;;;;8.87;4.80;;;36.60;18.80;;;;;;10432132;28;20604;-71
2023/06/22 17:45:03;;;;;;;8.50;5.30;;;36.50;18.80;;;;;;10431350;28;20823;-71
2023/06/22 17:50:07;;;;;;;6.90;4.87;;;36.30;19.10;;;;;;10430272;28;20279;-71
2023/06/22 17:55:11;;;;;;;5.93;5.27;;;36.00;20.00;;;;;;10437261;28;20228;-71
2023/06/22 18:00:16;;;;;;;8.43;5.17;;;35.70;20.30;;;;;;10430918;28;20312;-70
2023/06/22 18:05:29;;;;;;;10.13;5.47;;;35.40;21.20;;;;;;10434397;28;20222;-70
2023/06/22 18:10:35;;;;;;;6.40;4.93;;;35.00;22.00;;;;;;10423519;28;20317;-70
2023/06/22 18:15:40;;;;;;;10.97;5.33;;;34.50;21.90;;;;;;10428038;28;20320;-70
2023/06/22 18:20:46;;;;;;;6.97;4.97;;;33.90;23.10;;;;;;10425027;28;20218;-70
2023/06/22 18:25:49;;;;;;;9.97;5.53;;;33.40;23.40;;;;;;10439061;28;20246;-70
2023/06/22 18:30:55;;;;;;;8.60;5.50;;;32.90;24.50;;;;;;10431638;28;20241;-70
2023/06/22 18:35:59;;;;;;;7.10;5.23;;;32.50;26.30;;;;;;10432685;28;20769;-70
2023/06/22 18:41:04;;;;;;;8.83;5.20;;;32.40;25.60;;;;;;10436001;28;20229;-70
2023/06/22 18:46:31;;;;;;;12.13;5.53;;;32.30;25.80;;;;;;10433353;28;20243;-70
2023/06/22 18:51:51;;;;;;;10.43;5.50;;;32.30;26.90;;;;;;10436309;28;20226;-70
2023/06/22 18:56:56;;;;;;;7.77;5.43;;;32.20;27.80;;;;;;10430288;28;20233;-70
2023/06/22 19:02:02;;;;;;;7.73;5.47;;;31.80;27.20;;;;;;10431607;28;20225;-70
2023/06/22 19:07:07;;;;;;;11.20;5.73;;;31.40;28.20;;;;;;10436024;28;20287;-70
2023/06/22 19:12:22;;;;;;;8.53;6.20;;;31.10;27.50;;;;;;10435027;28;20237;-70
2023/06/22 19:17:26;;;;;;;7.57;5.67;;;30.80;29.20;;;;;;10433955;28;20233;-70
2023/06/22 19:22:48;;;;;;;7.77;4.83;;;30.80;28.80;;;;;;10429015;28;20627;-70
2023/06/22 19:27:54;;;;;;;9.20;4.97;;;30.40;28.70;;;;;;10432819;28;20693;-70
2023/06/22 19:32:59;;;;;;;6.00;4.33;;;30.00;28.30;;;;;;10423957;28;20287;-70
2023/06/22 19:38:03;;;;;;;6.90;4.33;;;29.60;28.50;;;;;;10421997;28;20251;-70
2023/06/22 19:43:07;;;;;;;7.67;4.10;;;29.50;28.40;;;;;;10426353;28;20226;-70
2023/06/22 19:48:13;;;;;;;7.07;4.47;;;29.50;28.90;;;;;;10426221;28;20769;-70
2023/06/22 19:53:16;;;;;;;8.30;4.57;;;29.50;29.10;;;;;;10424801;28;20240;-66
2023/06/22 19:58:23;;;;;;;7.07;3.93;;;29.30;28.70;;;;;;10418767;28;20235;-66
2023/06/22 20:03:29;;;;;;;6.10;4.60;;;29.10;29.20;;;;;;10420487;28;20233;-66
2023/06/22 20:08:44;;;;;;;9.40;4.93;;;28.80;30.40;;;;;;10420596;28;20333;-66
2023/06/22 20:13:48;;;;;;;7.23;4.70;;;28.50;30.50;;;;;;10419762;28;20368;-66
2023/06/22 20:19:06;;;;;;;8.33;4.10;;;28.30;30.40;;;;;;10425359;28;20241;-67
2023/06/22 20:24:11;;;;;;;8.80;4.53;;;28.10;30.30;;;;;;10416606;28;20272;-68
2023/06/22 20:29:24;;;;;;;11.23;5.27;;;27.80;30.60;;;;;;10419649;28;20235;-68
2023/06/22 20:34:34;;;;;;;5.80;3.97;;;27.20;33.60;;;;;;10417476;28;20915;-68
2023/06/22 20:39:38;;;;;;;8.03;3.80;;;26.30;34.10;;;;;;10424487;28;20243;-67
2023/06/22 20:44:41;;;;;;;9.47;4.17;;;25.80;33.60;;;;;;10424040;28;20311;-67
2023/06/22 20:49:45;;;;;;;6.20;3.80;;;25.40;34.10;;;;;;10434844;28;20315;-67
2023/06/22 20:54:49;;;;;;;6.10;3.70;;;25.00;35.40;;;;;;10423621;28;20316;-67
2023/06/22 20:59:52;;;;;;;6.20;3.60;;;24.80;34.60;;;;;;10438684;28;20610;-71
2023/06/22 21:04:57;;;;;;;6.57;3.30;;;24.70;35.20;;;;;;10441253;28;20327;-71
2023/06/22 21:10:00;;;;;;;7.83;3.60;;;24.60;36.10;;;;;;10445063;28;20225;-71
2023/06/22 21:15:05;;;;;;;5.40;3.33;;;24.60;35.30;;;;;;10437622;28;20231;-72
2023/06/22 21:20:11;;;;;;;7.30;3.47;;;24.70;35.30;;;;;;10438009;28;20303;-72
2023/06/22 21:25:16;;;;;;;4.53;3.33;;;24.70;36.50;;;;;;10442206;28;20693;-71
2023/06/22 21:30:19;;;;;;;7.00;4.10;;;24.60;36.00;;;;;;10444951;28;20308;-72
2023/06/22 21:35:24;;;;;;;7.83;3.80;;;24.40;35.90;;;;;;10447473;28;20649;-71
2023/06/22 21:40:27;;;;;;;7.53;3.83;;;24.30;37.40;;;;;;10447614;28;20246;-71
2023/06/22 21:45:30;;;;;;;8.23;4.37;;;24.20;36.60;;;;;;10437103;28;20239;-71
2023/06/22 21:50:35;;;;;;;6.50;3.93;;;24.10;36.90;;;;;;10435300;28;20302;-72
2023/06/22 21:55:39;;;;;;;7.03;4.23;;;24.10;38.10;;;;;;10440023;28;20307;-71
2023/06/22 22:00:42;;;;;;;11.00;4.30;;;24.10;37.60;;;;;;10443732;28;20220;-72
2023/06/22 22:05:47;;;;;;;6.77;3.80;;;24.30;37.50;;;;;;10438940;28;20241;-71
2023/06/22 22:10:50;;;;;;;6.20;3.70;;;24.40;38.40;;;;;;10443217;28;20766;-72
2023/06/22 22:15:54;;;;;;;7.47;3.63;;;24.50;37.50;;;;;;10442780;28;20316;-72
2023/06/22 22:20:58;;;;;;;6.87;4.00;;;24.60;37.30;;;;;;10449450;28;20252;-71
2023/06/22 22:26:01;;;;;;;6.80;3.70;;;24.70;38.20;;;;;;10431636;28;20231;-71
2023/06/22 22:31:05;;;;;;;7.37;4.00;;;24.70;37.20;;;;;;10446975;28;20217;-72
2023/06/22 22:36:10;;;;;;;5.20;3.80;;;24.60;37.20;;;;;;10440712;28;20233;-73
2023/06/22 22:41:13;;;;;;;6.53;4.07;;;24.50;38.30;;;;;;10427751;28;20218;-71
2023/06/22 22:46:16;;;;;;;6.60;3.50;;;24.40;37.60;;;;;;10438746;28;20321;-71
2023/06/22 22:51:21;;;;;;;5.00;3.40;;;24.30;37.90;;;;;;10435823;28;20235;-72
2023/06/22 22:56:25;;;;;;;4.47;3.70;;;24.20;38.70;;;;;;10438017;28;20697;-71
2023/06/22 23:01:29;;;;;;;5.43;3.83;;;24.20;38.10;;;;;;10437672;28;20225;-71
2023/06/22 23:06:36;;;;;;;4.10;3.70;;;24.30;38.60;;;;;;10431984;28;20669;-71
2023/06/22 23:11:40;;;;;;;7.70;3.90;;;24.40;39.40;;;;;;10446918;28;20228;-71
2023/06/22 23:16:43;;;;;;;5.37;3.87;;;24.40;38.30;;;;;;10448619;28;20260;-71
2023/06/22 23:21:48;;;;;;;5.30;3.90;;;24.30;38.40;;;;;;10446591;28;20235;-71
2023/06/22 23:26:52;;;;;;;5.37;3.97;;;24.20;39.60;;;;;;10443843;28;20271;-71
2023/06/22 23:31:55;;;;;;;4.30;3.90;;;24.10;39.00;;;;;;10449797;28;20312;-72
2023/06/22 23:37:00;;;;;;;5.90;3.77;;;23.90;39.40;;;;;;10446531;28;20267;-71
2023/06/22 23:42:04;;;;;;;4.33;3.93;;;23.80;39.80;;;;;;10449713;28;20316;-72
2023/06/22 23:47:08;;;;;;;7.97;3.67;;;23.70;39.80;;;;;;10447635;28;20282;-71
2023/06/22 23:52:12;;;;;;;6.50;4.23;;;23.60;39.70;;;;;;10443392;28;20766;-72
2023/06/22 23:57:15;;;;;;;5.13;4.10;;;23.50;40.90;;;;;;10443675;28;20283;-72
